Time;durP1;ratioP1;P1;durP2;ratioP2;P2;SDS_P1;SDS_P2;PMS_P1;PMS_P2;Temp;Humidity;BMP_temperature;BMP_pressure;BME280_temperature;BME280_humidity;BME280_pressure;Samples;Min_cycle;Max_cycle;Signal;HPM_P1;HPM_P2
2023/08/23 00:03:53;;;;;;;3.95;2.15;;;;;;;28.67;50.55;100024.53;10372272;28;96574;-81
2023/08/23 00:08:57;;;;;;;3.15;2.20;;;;;;;28.59;50.70;100014.59;10370906;28;96657;-81
2023/08/23 00:14:00;;;;;;;4.70;2.22;;;;;;;28.76;50.24;100005.31;10371979;28;96881;-81
2023/08/23 00:19:05;;;;;;;4.88;2.47;;;;;;;28.80;50.04;99995.78;10370923;28;96803;-82
2023/08/23 00:24:09;;;;;;;3.33;2.25;;;;;;;28.80;49.79;99995.78;10371541;28;96919;-82
2023/08/23 00:29:12;;;;;;;4.40;2.20;;;;;;;28.81;49.71;99993.94;10371594;28;96904;-82
2023/08/23 00:34:16;;;;;;;;;;;;;;;28.86;49.62;99988.81;10371327;28;96886;-82
2023/08/23 00:39:20;;;;;;;4.32;2.55;;;;;;;28.73;49.25;99997.56;10371319;28;98054;-81
2023/08/23 00:44:23;;;;;;;2.75;2.15;;;;;;;28.69;50.16;99990.81;10371338;28;97291;-82
2023/08/23 00:49:33;;;;;;;4.90;2.45;;;;;;;28.57;50.84;99986.84;10369979;28;97516;-82
2023/08/23 00:54:37;;;;;;;3.25;2.28;;;;;;;28.45;51.09;99991.00;10370266;28;97436;-82
2023/08/23 00:59:41;;;;;;;4.45;2.35;;;;;;;28.34;51.30;99987.91;10369863;28;96829;-82
2023/08/23 01:04:45;;;;;;;6.30;2.65;;;;;;;28.18;52.19;99986.09;10374754;28;97260;-82
2023/08/23 01:09:52;;;;;;;3.65;2.78;;;;;;;28.04;52.57;99984.16;10377807;28;96879;-82
2023/08/23 01:15:02;;;;;;;4.70;2.25;;;;;;;27.97;52.87;99980.47;10377685;28;96710;-82
2023/08/23 01:20:10;;;;;;;3.97;2.42;;;;;;;27.96;52.66;99976.09;10376761;28;97031;-82
2023/08/23 01:25:16;;;;;;;3.63;2.28;;;;;;;27.78;52.96;99968.25;10376977;28;97291;-82
2023/08/23 01:30:20;;;;;;;4.20;2.60;;;;;;;27.69;53.33;99968.47;10377124;28;96931;-82
2023/08/23 01:35:25;;;;;;;;;;;;;;;27.71;52.89;99958.31;10378129;28;96580;-81
2023/08/23 01:40:31;;;;;;;4.40;2.40;;;;;;;27.70;53.05;99962.88;10376678;28;96710;-81
2023/08/23 01:45:34;;;;;;;3.22;2.05;;;;;;;27.79;52.67;99961.81;10376518;28;96490;-82
2023/08/23 01:50:37;;;;;;;5.10;2.30;;;;;;;27.69;52.85;99960.34;10375413;28;97777;-82
2023/08/23 01:55:42;;;;;;;5.65;2.83;;;;;;;27.45;53.34;99963.13;10375906;28;96650;-81
2023/08/23 02:00:47;;;;;;;2.45;2.17;;;;;;;27.28;53.27;99965.06;10376103;28;97082;-81
2023/08/23 02:05:50;;;;;;;3.85;2.38;;;;;;;27.13;54.42;99969.47;10375874;28;96664;-81
2023/08/23 02:10:55;;;;;;;4.45;2.60;;;;;;;26.96;54.60;99962.41;10375762;28;96623;-82
2023/08/23 02:15:58;;;;;;;2.90;2.10;;;;;;;26.89;55.23;99959.53;10374007;28;97209;-81
2023/08/23 02:21:02;;;;;;;3.67;2.42;;;;;;;27.09;52.93;99957.34;10375030;28;97506;-80
2023/08/23 02:26:07;;;;;;;2.97;2.08;;;;;;;26.76;54.73;99958.38;10376397;28;96622;-81
2023/08/23 02:31:10;;;;;;;5.13;2.58;;;;;;;26.66;54.95;99966.66;10375155;28;96667;-81
2023/08/23 02:36:14;;;;;;;3.22;2.30;;;;;;;26.59;55.36;99965.63;10374411;28;97385;-81
2023/08/23 02:41:18;;;;;;;3.80;2.80;;;;;;;26.77;53.61;99958.22;10373654;28;97454;-81
2023/08/23 02:46:22;;;;;;;4.05;2.67;;;;;;;26.70;53.98;99962.59;10374223;28;97146;-81
2023/08/23 02:51:25;;;;;;;3.28;2.28;;;;;;;26.63;54.94;99963.44;10373495;28;96908;-81
2023/08/23 02:56:30;;;;;;;3.92;2.20;;;;;;;26.69;54.15;99970.88;10374002;28;96707;-81
2023/08/23 03:01:34;;;;;;;3.67;2.20;;;;;;;26.64;54.51;99974.09;10374058;28;96789;-81
2023/08/23 03:06:37;;;;;;;4.30;2.33;;;;;;;26.82;53.84;99988.25;10373529;28;97825;-82
2023/08/23 03:11:42;;;;;;;5.70;2.50;;;;;;;27.00;52.96;99974.56;10374221;28;96900;-81
2023/08/23 03:16:45;;;;;;;4.45;2.42;;;;;;;27.09;52.64;99981.66;10373786;28;96690;-81
2023/08/23 03:21:48;;;;;;;6.22;2.63;;;;;;;27.09;52.51;99984.38;10373008;28;96695;-81
2023/08/23 03:26:53;;;;;;;5.75;2.40;;;;;;;27.11;52.03;99976.94;10371687;28;96695;-81
2023/08/23 03:31:56;;;;;;;5.63;2.50;;;;;;;27.07;52.70;99981.00;10372145;28;96574;-81
2023/08/23 03:37:00;;;;;;;4.10;2.17;;;;;;;26.85;53.36;99981.66;10372737;28;97440;-81
2023/08/23 03:42:05;;;;;;;5.97;2.72;;;;;;;26.88;52.85;99978.63;10372567;28;97000;-81
2023/08/23 03:47:08;;;;;;;5.35;2.65;;;;;;;27.02;52.41;99969.81;10371672;28;99026;-81
2023/08/23 03:52:12;;;;;;;5.73;2.83;;;;;;;26.92;52.99;99971.88;10372542;28;96648;-81
2023/08/23 03:57:16;;;;;;;5.18;2.80;;;;;;;27.08;52.21;99971.03;10364298;28;96581;-81
2023/08/23 04:02:20;;;;;;;3.97;2.80;;;;;;;27.06;52.31;99978.47;10372158;28;96655;-81
2023/08/23 04:07:23;;;;;;;;;;;;;;;26.99;52.43;99968.28;10373290;28;96660;-81
2023/08/23 04:12:28;;;;;;;4.78;2.88;;;;;;;27.07;51.38;99963.94;10371561;28;96618;-80
2023/08/23 04:17:31;;;;;;;3.22;2.22;;;;;;;27.03;51.78;99963.44;10370688;28;96803;-81
2023/08/23 04:22:35;;;;;;;3.03;2.55;;;;;;;27.51;49.22;99960.56;10370853;28;96813;-81
2023/08/23 04:27:40;;;;;;;4.88;2.78;;;;;;;27.33;50.22;99954.56;10371400;28;97061;-81
2023/08/23 04:32:45;;;;;;;4.72;3.05;;;;;;;27.68;48.59;99961.38;10370978;28;96810;-81
2023/08/23 04:37:48;;;;;;;3.90;3.25;;;;;;;27.82;48.55;99963.34;10372064;28;96769;-81
2023/08/23 04:42:54;;;;;;;4.10;2.70;;;;;;;27.96;47.45;99957.16;10378696;28;96647;-81
2023/08/23 04:47:57;;;;;;;4.63;3.08;;;;;;;28.04;47.50;99943.59;10377854;28;97713;-81
2023/08/23 04:53:00;;;;;;;3.63;2.72;;;;;;;28.02;47.20;99954.59;10378433;28;98495;-80
2023/08/23 04:58:05;;;;;;;3.92;2.63;;;;;;;28.09;46.96;99957.41;10378328;28;96630;-80
2023/08/23 05:03:08;;;;;;;4.38;3.17;;;;;;;28.18;46.78;99955.50;10377311;28;97356;-80
2023/08/23 05:08:12;;;;;;;5.53;2.63;;;;;;;28.28;46.95;99958.78;10377475;28;96679;-81
2023/08/23 05:13:17;;;;;;;4.05;2.42;;;;;;;28.37;46.51;99961.31;10376742;28;96708;-81
2023/08/23 05:18:21;;;;;;;4.20;3.00;;;;;;;28.45;46.06;99965.78;10377092;28;97713;-81
2023/08/23 05:23:25;;;;;;;4.03;3.28;;;;;;;28.50;45.75;99971.53;10357597;28;96689;-81
2023/08/23 05:28:29;;;;;;;;;;;;;;;28.44;46.34;99966.81;10377905;28;96856;-80
2023/08/23 05:33:33;;;;;;;4.00;2.60;;;;;;;28.36;46.67;99975.84;10377238;28;96683;-81
2023/08/23 05:38:37;;;;;;;6.50;2.90;;;;;;;28.05;48.37;99978.56;10376442;28;97759;-81
2023/08/23 05:43:42;;;;;;;5.60;3.47;;;;;;;28.27;46.48;99976.06;10376988;28;97475;-80
2023/08/23 05:48:45;;;;;;;3.65;2.65;;;;;;;28.39;46.41;99971.94;10376275;28;97494;-81
2023/08/23 05:53:48;;;;;;;4.28;2.55;;;;;;;28.47;46.18;99982.69;10376136;28;96897;-81
2023/08/23 05:58:53;;;;;;;;;;;;;;;28.55;45.65;99990.78;10376204;28;96749;-80
2023/08/23 06:03:56;;;;;;;4.80;2.75;;;;;;;28.60;45.65;99986.47;10375265;28;96898;-80
2023/08/23 06:09:00;;;;;;;5.13;3.05;;;;;;;28.63;45.22;99978.00;10375880;28;96709;-81
2023/08/23 06:14:19;;;;;;;3.92;2.92;;;;;;;28.73;44.38;99986.72;10375233;28;96800;-81
2023/08/23 06:19:23;;;;;;;4.90;2.90;;;;;;;28.79;44.81;99996.81;10374785;28;97775;-81
2023/08/23 06:24:26;;;;;;;3.58;2.83;;;;;;;28.89;44.68;99999.28;10375696;28;97541;-80
2023/08/23 06:29:31;;;;;;;5.32;3.25;;;;;;;29.10;43.57;100007.56;10375006;28;96781;-81
2023/08/23 06:34:35;;;;;;;4.95;2.80;;;;;;;29.39;43.30;100004.03;10375038;28;97200;-82
2023/08/23 06:39:38;;;;;;;;;;;;;;;29.66;42.40;100016.97;10376035;28;96647;-81
2023/08/23 06:44:42;;;;;;;4.30;2.72;;;;;;;29.94;42.23;100015.22;10374496;28;96837;-81
2023/08/23 06:49:46;;;;;;;3.28;2.40;;;;;;;30.25;41.77;100021.28;10374119;28;97087;-81
2023/08/23 06:54:49;;;;;;;;;;;;;;;30.61;40.64;100027.50;10373868;28;96846;-82
2023/08/23 06:59:53;;;;;;;3.13;2.25;;;;;;;31.16;41.05;100022.19;10374165;28;96705;-82
2023/08/23 07:04:57;;;;;;;3.17;2.13;;;;;;;31.54;39.40;100021.81;10373721;28;97201;-82
2023/08/23 07:10:00;;;;;;;2.60;2.10;;;;;;;31.44;38.67;100030.34;10373731;28;96696;-82
2023/08/23 07:15:25;;;;;;;4.50;2.47;;;;;;;31.48;37.92;100028.91;10373464;28;96931;-81
2023/08/23 07:20:29;;;;;;;3.00;2.42;;;;;;;31.60;37.18;100030.00;10372785;28;96926;-81
2023/08/23 07:25:32;;;;;;;3.30;2.40;;;;;;;31.86;37.37;100021.19;10372907;28;96744;-81
2023/08/23 07:30:37;;;;;;;4.03;2.35;;;;;;;32.04;36.81;100021.47;10373920;28;96632;-82
2023/08/23 07:35:41;;;;;;;2.85;2.45;;;;;;;32.30;36.15;100027.00;10373425;28;96752;-82
2023/08/23 07:40:44;;;;;;;3.40;2.40;;;;;;;32.69;35.22;100031.72;10372561;28;96843;-81
2023/08/23 07:45:54;;;;;;;2.92;2.33;;;;;;;32.98;34.39;100034.09;10371828;28;97047;-82
2023/08/23 07:51:15;;;;;;;2.58;1.98;;;;;;;33.14;33.93;100037.22;10365593;28;96807;-82
2023/08/23 07:56:18;;;;;;;3.33;2.33;;;;;;;33.13;33.75;100029.25;10372319;28;96721;-81
2023/08/23 08:01:23;;;;;;;4.95;2.20;;;;;;;33.25;33.74;100039.31;10371694;28;96775;-82
2023/08/23 08:06:26;;;;;;;3.53;2.20;;;;;;;33.42;33.54;100035.13;10371471;28;96713;-82
2023/08/23 08:11:29;;;;;;;2.95;2.10;;;;;;;33.77;32.87;100046.59;10371647;28;97078;-82
2023/08/23 08:16:34;;;;;;;3.45;2.38;;;;;;;33.96;32.03;100045.72;10370632;28;96792;-82
2023/08/23 08:21:38;;;;;;;2.22;2.03;;;;;;;34.26;32.31;100046.84;10377271;28;97781;-82
2023/08/23 08:26:41;;;;;;;3.17;2.22;;;;;;;34.38;31.99;100041.50;10413182;28;96773;-82
2023/08/23 08:31:49;;;;;;;3.55;2.17;;;;;;;34.50;31.26;100032.44;10373806;28;96803;-82
2023/08/23 08:36:53;;;;;;;2.63;2.20;;;;;;;34.63;30.91;100034.22;10370266;28;96815;-82
2023/08/23 08:41:57;;;;;;;2.90;1.92;;;;;;;34.78;30.68;100034.78;10371085;28;96629;-82
2023/08/23 08:47:02;;;;;;;5.07;2.03;;;;;;;34.95;30.63;100035.09;10370739;28;96795;-82
2023/08/23 08:52:06;;;;;;;3.30;1.90;;;;;;;35.96;29.35;100047.38;10370859;28;97469;-83
2023/08/23 08:57:12;;;;;;;2.35;1.77;;;;;;;35.90;29.50;100034.56;10370533;28;96823;-82
2023/08/23 09:02:19;;;;;;;3.50;2.20;;;;;;;36.15;28.76;100029.84;10370011;28;97485;-82
2023/08/23 09:07:22;;;;;;;2.70;1.75;;;;;;;36.27;28.94;100028.00;10370348;28;97696;-82
2023/08/23 09:12:26;;;;;;;2.88;2.30;;;;;;;36.56;28.57;100035.41;10371116;28;97332;-82
2023/08/23 09:17:34;;;;;;;3.22;1.98;;;;;;;36.69;28.48;100041.53;10369575;28;96639;-81
2023/08/23 09:22:38;;;;;;;2.28;1.88;;;;;;;36.84;28.42;100045.75;10369155;28;96786;-82
2023/08/23 09:27:59;;;;;;;3.13;2.05;;;;;;;36.98;27.45;100045.34;10376686;28;97306;-83
2023/08/23 09:33:20;;;;;;;2.00;1.60;;;;;;;36.87;27.95;100045.25;10370695;28;96902;-82
2023/08/23 09:38:24;;;;;;;2.25;1.58;;;;;;;37.07;27.36;100043.91;10341763;28;97639;-82
2023/08/23 09:43:47;;;;;;;3.10;2.28;;;;;;;37.24;27.20;100047.63;10331940;28;96671;-82
2023/08/23 09:48:53;;;;;;;3.28;1.88;;;;;;;37.59;26.75;100050.41;10446038;22;96849;-83
2023/08/23 09:53:59;;;;;;;2.20;1.90;;;;;;;37.29;26.36;100044.16;10501197;27;96863;-82
2023/08/23 09:59:02;;;;;;;3.63;1.95;;;;;;;37.34;26.72;100045.16;10501867;27;97558;-82
2023/08/23 10:04:10;;;;;;;2.38;1.95;;;;;;;37.48;27.11;100038.34;10502834;27;96689;-82
2023/08/23 10:09:30;;;;;;;2.45;2.00;;;;;;;37.87;26.14;100042.25;10494248;27;97020;-82
2023/08/23 10:14:37;;;;;;;2.38;1.88;;;;;;;37.84;26.39;100045.50;10501643;27;96775;-82
2023/08/23 10:19:42;;;;;;;2.08;1.60;;;;;;;37.94;26.45;100053.13;10499861;27;97238;-82
2023/08/23 10:25:03;;;;;;;2.53;2.00;;;;;;;37.48;25.75;100049.34;10528595;27;97286;-82
2023/08/23 10:30:26;;;;;;;5.17;2.03;;;;;;;37.88;26.45;100049.44;10464289;27;97809;-82
2023/08/23 10:35:34;;;;;;;4.07;1.95;;;;;;;37.90;25.97;100049.19;10457262;27;96805;-82
2023/08/23 10:40:38;;;;;;;3.67;2.10;;;;;;;38.61;25.18;100044.06;10458524;27;96823;-82
2023/08/23 10:45:52;;;;;;;2.30;1.90;;;;;;;38.91;24.85;100038.31;10459015;27;96874;-82
2023/08/23 10:50:57;;;;;;;2.38;1.70;;;;;;;39.11;24.21;100035.88;10496245;27;97699;-82
2023/08/23 10:56:18;;;;;;;3.53;2.17;;;;;;;38.88;23.85;100039.63;10454388;27;96662;-81
2023/08/23 11:01:22;;;;;;;2.95;2.05;;;;;;;39.12;24.30;100035.63;10456880;27;97035;-82
2023/08/23 11:06:27;;;;;;;2.90;1.67;;;;;;;39.18;23.50;100034.66;10457617;27;97359;-82
2023/08/23 11:11:31;;;;;;;3.05;1.92;;;;;;;39.58;23.65;100026.97;10456355;27;97201;-82
2023/08/23 11:16:35;;;;;;;2.53;2.00;;;;;;;40.24;23.71;100025.97;10456948;27;97132;-82
2023/08/23 11:21:42;;;;;;;3.30;1.92;;;;;;;40.10;23.13;100018.38;10455584;27;98019;-81
2023/08/23 11:26:46;;;;;;;1.83;1.58;;;;;;;41.38;21.31;100019.09;10457086;27;97856;-83
2023/08/23 11:31:54;;;;;;;1.83;1.60;;;;;;;41.68;21.95;100007.34;10480642;27;96830;-83
2023/08/23 11:37:16;;;;;;;4.50;2.50;;;;;;;40.95;23.82;99995.25;10487104;27;96680;-82
2023/08/23 11:42:21;;;;;;;3.22;2.33;;;;;;;40.81;24.22;99991.25;10498803;27;96644;-82
2023/08/23 11:47:27;;;;;;;3.00;2.50;;;;;;;40.69;24.67;99992.53;10483525;27;96709;-81
2023/08/23 11:52:33;;;;;;;3.13;2.33;;;;;;;40.70;25.02;99994.19;10456787;27;96967;-82
2023/08/23 11:57:36;;;;;;;2.72;2.28;;;;;;;40.38;25.72;99996.06;10456195;27;96667;-81
2023/08/23 12:02:39;;;;;;;2.78;2.17;;;;;;;40.11;26.25;99984.16;10454357;27;96811;-82
2023/08/23 12:07:44;;;;;;;2.80;2.50;;;;;;;39.92;26.61;99992.75;10455318;27;97265;-83
2023/08/23 12:12:48;;;;;;;4.82;2.60;;;;;;;39.48;26.52;99985.53;10456024;27;97745;-82
2023/08/23 12:18:08;;;;;;;2.58;2.30;;;;;;;39.10;26.95;99977.22;10451631;27;96831;-82
2023/08/23 12:23:13;;;;;;;3.53;2.97;;;;;;;39.26;27.04;99975.56;10455126;27;96742;-83
2023/08/23 12:28:16;;;;;;;3.95;2.45;;;;;;;38.78;27.92;99974.25;10455848;27;96959;-81
2023/08/23 12:33:20;;;;;;;2.67;2.47;;;;;;;38.99;27.48;99972.66;10454644;27;96609;-82
2023/08/23 12:38:24;;;;;;;3.33;2.90;;;;;;;38.77;27.78;99969.81;10455851;27;97548;-82
2023/08/23 12:43:31;;;;;;;3.45;2.50;;;;;;;38.89;27.61;99969.72;10455209;27;97876;-83
2023/08/23 12:48:51;;;;;;;3.38;2.58;;;;;;;38.92;27.78;99969.25;10482557;27;96645;-83
2023/08/23 12:53:56;;;;;;;2.92;2.42;;;;;;;39.12;27.95;99968.69;10495600;27;96649;-82
2023/08/23 12:59:17;;;;;;;3.45;2.58;;;;;;;39.08;27.94;99962.88;10490462;27;96684;-82
2023/08/23 13:04:20;;;;;;;3.28;2.95;;;;;;;39.12;27.95;99969.53;10461697;27;96798;-82
2023/08/23 13:09:42;;;;;;;4.65;2.70;;;;;;;39.26;28.09;99962.63;10455038;27;97600;-82
2023/08/23 13:14:46;;;;;;;3.90;2.63;;;;;;;39.13;28.38;99959.38;10461114;27;97549;-82
2023/08/23 13:19:49;;;;;;;2.72;2.47;;;;;;;39.41;28.28;99956.53;10461308;27;96777;-82
2023/08/23 13:24:54;;;;;;;2.78;2.38;;;;;;;39.43;28.21;99957.06;10482581;27;96851;-82
2023/08/23 13:29:58;;;;;;;2.78;2.58;;;;;;;39.30;27.55;99955.53;10503990;27;96737;-82
2023/08/23 13:35:19;;;;;;;3.57;2.40;;;;;;;39.24;27.65;99948.28;10478167;27;97487;-81
2023/08/23 13:40:24;;;;;;;3.88;2.40;;;;;;;39.58;26.67;99938.81;10460536;27;97825;-82
2023/08/23 13:45:27;;;;;;;2.60;2.40;;;;;;;39.48;26.82;99937.88;10459474;27;96658;-83
2023/08/23 13:50:48;;;;;;;2.47;2.27;;;;;;;39.62;27.12;99933.66;10460567;27;97527;-82
2023/08/23 13:56:11;;;;;;;3.67;2.50;;;;;;;39.68;26.77;99919.72;10456209;27;96543;-83
2023/08/23 14:01:14;;;;;;;3.85;2.55;;;;;;;39.65;26.27;99924.91;10459889;27;96645;-82
2023/08/23 14:06:17;;;;;;;2.83;2.40;;;;;;;39.79;26.58;99917.91;10459499;27;96663;-82
2023/08/23 14:11:22;;;;;;;3.15;2.80;;;;;;;39.51;26.84;99916.13;10459125;27;97647;-82
2023/08/23 14:16:26;;;;;;;3.47;3.17;;;;;;;39.48;27.00;99921.34;10458107;27;97584;-83
2023/08/23 14:21:29;;;;;;;4.35;2.80;;;;;;;39.32;27.30;99909.31;10459312;27;96813;-82
2023/08/23 14:26:34;;;;;;;4.18;2.92;;;;;;;39.38;27.53;99915.69;10459440;27;97438;-82
2023/08/23 14:31:38;;;;;;;3.63;3.08;;;;;;;39.32;28.23;99909.31;10458943;27;97097;-82
2023/08/23 14:36:43;;;;;;;3.58;2.40;;;;;;;39.41;27.52;99906.94;10457331;27;96746;-81
2023/08/23 14:42:06;;;;;;;3.58;2.63;;;;;;;39.49;27.02;99910.06;10458244;27;97209;-81
2023/08/23 14:47:09;;;;;;;3.45;2.63;;;;;;;39.25;27.06;99910.56;10458062;27;97904;-82
2023/08/23 14:52:17;;;;;;;3.30;2.75;;;;;;;39.09;27.28;99909.50;10458164;27;96716;-81
2023/08/23 14:57:22;;;;;;;3.88;2.60;;;;;;;39.37;27.02;99903.88;10458188;27;96873;-81
2023/08/23 15:02:26;;;;;;;2.88;2.45;;;;;;;39.52;27.60;99898.53;10458215;27;97017;-81
2023/08/23 15:07:29;;;;;;;4.40;2.53;;;;;;;39.37;27.17;99895.59;10457382;27;96819;-82
2023/08/23 15:12:52;;;;;;;4.20;2.53;;;;;;;39.20;27.16;99889.28;10451471;27;96605;-83
2023/08/23 15:17:56;;;;;;;2.60;2.35;;;;;;;38.99;27.80;99887.34;10457557;27;97565;-82
2023/08/23 15:23:17;;;;;;;2.80;2.50;;;;;;;38.98;27.27;99891.16;10450378;27;96622;-82
2023/08/23 15:28:22;;;;;;;3.10;2.30;;;;;;;39.02;27.17;99891.47;10456011;27;96667;-81
2023/08/23 15:33:25;;;;;;;3.15;2.25;;;;;;;39.16;27.26;99882.66;10457352;27;96570;-81
2023/08/23 15:38:28;;;;;;;3.85;2.65;;;;;;;39.08;26.42;99884.97;10456279;27;97347;-81
2023/08/23 15:43:33;;;;;;;3.45;2.47;;;;;;;39.15;26.70;99882.88;10456624;27;96635;-81
2023/08/23 15:48:54;;;;;;;2.55;2.30;;;;;;;38.87;26.10;99874.75;10472649;27;97129;-81
2023/08/23 15:53:57;;;;;;;2.75;2.05;;;;;;;38.98;26.25;99880.16;10457899;27;97452;-81
2023/08/23 15:59:02;;;;;;;3.35;2.10;;;;;;;38.89;26.22;99878.91;10455956;27;96648;-82
2023/08/23 16:04:07;;;;;;;4.35;2.10;;;;;;;38.77;26.82;99875.41;10456838;27;97768;-81
2023/08/23 16:09:28;;;;;;;2.40;2.20;;;;;;;38.58;26.57;99880.34;10452882;27;97119;-82
2023/08/23 16:14:32;;;;;;;2.53;2.20;;;;;;;38.48;26.92;99874.69;10455671;27;96647;-81
2023/08/23 16:19:36;;;;;;;2.50;2.05;;;;;;;38.29;27.30;99875.16;10453678;27;97459;-81
2023/08/23 16:24:39;;;;;;;2.65;2.20;;;;;;;38.21;26.50;99875.56;10462057;27;96784;-81
2023/08/23 16:29:44;;;;;;;2.70;2.00;;;;;;;38.17;26.58;99871.63;10455147;27;97617;-82
2023/08/23 16:34:47;;;;;;;2.60;2.00;;;;;;;38.20;26.35;99876.63;10454220;27;97669;-81
2023/08/23 16:39:50;;;;;;;2.67;2.15;;;;;;;38.10;26.81;99874.53;10454747;27;96648;-81
2023/08/23 16:44:55;;;;;;;3.80;2.20;;;;;;;38.03;26.67;99876.59;10454744;27;96876;-82
2023/08/23 16:49:58;;;;;;;5.32;2.30;;;;;;;37.99;27.22;99875.41;10454222;27;96878;-81
2023/08/23 16:55:04;;;;;;;3.53;2.50;;;;;;;37.91;27.25;99883.22;10455102;27;97280;-81
2023/08/23 17:00:13;;;;;;;3.65;2.45;;;;;;;37.70;26.81;99885.56;10455209;27;97709;-81
2023/08/23 17:05:16;;;;;;;2.67;2.10;;;;;;;37.60;27.06;99888.13;10454113;27;96752;-81
2023/08/23 17:10:20;;;;;;;2.67;1.98;;;;;;;37.51;27.38;99884.09;10453005;27;96652;-81
2023/08/23 17:15:25;;;;;;;3.42;2.20;;;;;;;37.32;27.33;99889.94;10454468;27;96656;-81
2023/08/23 17:20:29;;;;;;;2.70;1.80;;;;;;;37.04;26.71;99892.59;10453515;27;98869;-81
2023/08/23 17:25:33;;;;;;;3.17;2.10;;;;;;;36.83;26.77;99898.69;10453464;27;96818;-82
2023/08/23 17:30:38;;;;;;;3.13;1.75;;;;;;;36.45;27.60;99901.84;10453544;27;96843;-83
2023/08/23 17:35:42;;;;;;;2.55;1.90;;;;;;;36.25;28.13;99899.44;10453668;27;97537;-81
2023/08/23 17:40:48;;;;;;;3.00;2.28;;;;;;;36.21;28.98;99914.66;10453275;27;97824;-82
2023/08/23 17:45:53;;;;;;;2.28;2.03;;;;;;;36.05;28.97;99915.31;10455139;27;96866;-81
2023/08/23 17:50:57;;;;;;;2.58;2.10;;;;;;;35.87;29.86;99911.75;10460134;27;96957;-83
2023/08/23 17:56:01;;;;;;;2.58;1.90;;;;;;;35.92;29.96;99920.16;10459873;27;96631;-81
2023/08/23 18:01:13;;;;;;;4.40;2.50;;;;;;;35.87;31.17;99917.25;10458936;27;96568;-81
2023/08/23 18:06:17;;;;;;;2.70;2.00;;;;;;;35.76;30.93;99920.75;10460299;27;97837;-81
2023/08/23 18:11:21;;;;;;;3.10;2.03;;;;;;;35.29;31.88;99911.41;10459648;27;96674;-83
2023/08/23 18:16:26;;;;;;;2.22;1.92;;;;;;;35.24;31.79;99912.09;10458920;27;96714;-81
2023/08/23 18:21:29;;;;;;;2.53;2.10;;;;;;;34.91;32.33;99919.78;10459201;27;96612;-81
2023/08/23 18:26:33;;;;;;;2.42;1.80;;;;;;;34.71;31.98;99926.50;10495915;27;96739;-81
2023/08/23 18:31:37;;;;;;;2.15;1.77;;;;;;;34.73;31.99;99924.38;10501309;27;96644;-81
2023/08/23 18:36:43;;;;;;;2.17;1.60;;;;;;;34.46;32.36;99934.69;10501764;27;96861;-81
2023/08/23 18:41:46;;;;;;;3.05;1.92;;;;;;;33.98;33.10;99931.63;10478594;27;96753;-81
2023/08/23 18:46:52;;;;;;;2.72;2.10;;;;;;;33.99;33.24;99933.28;10461159;27;96762;-80
2023/08/23 18:51:55;;;;;;;2.50;1.95;;;;;;;33.85;33.49;99939.84;10499478;27;97394;-80
2023/08/23 18:56:58;;;;;;;3.65;1.80;;;;;;;33.67;34.85;99947.09;10492642;27;96725;-81
2023/08/23 19:02:04;;;;;;;2.78;2.10;;;;;;;33.48;34.91;99957.88;10458064;27;97540;-80
2023/08/23 19:07:08;;;;;;;2.58;1.83;;;;;;;33.40;35.29;99962.69;10458149;27;97892;-80
2023/08/23 19:12:12;;;;;;;3.65;2.30;;;;;;;33.06;35.85;99973.88;10457932;27;96832;-81
2023/08/23 19:17:17;;;;;;;2.40;2.08;;;;;;;33.02;36.31;99975.34;10457623;27;96651;-80
2023/08/23 19:22:20;;;;;;;2.97;2.00;;;;;;;32.97;36.17;99991.47;10457308;27;96814;-81
2023/08/23 19:27:25;;;;;;;2.38;2.08;;;;;;;32.86;36.21;99992.09;10457884;27;97618;-79
2023/08/23 19:32:31;;;;;;;2.40;1.80;;;;;;;32.69;37.01;99999.03;10457321;27;97596;-80
2023/08/23 19:37:35;;;;;;;5.18;2.22;;;;;;;32.61;36.53;100007.38;10456944;27;97483;-80
2023/08/23 19:42:38;;;;;;;2.47;1.95;;;;;;;32.51;36.83;100012.41;10455469;27;96681;-81
2023/08/23 19:47:43;;;;;;;2.42;1.90;;;;;;;32.23;37.92;100026.13;10456614;27;97546;-80
2023/08/23 19:52:47;;;;;;;2.25;1.80;;;;;;;32.03;37.86;100026.06;10455587;27;96787;-80
2023/08/23 19:57:51;;;;;;;2.30;2.00;;;;;;;32.09;38.07;100032.59;10455941;27;96723;-80
2023/08/23 20:02:57;;;;;;;2.65;1.90;;;;;;;31.99;38.39;100038.44;10455562;27;96992;-80
2023/08/23 20:08:01;;;;;;;2.45;1.95;;;;;;;31.82;39.36;100045.25;10455093;27;96863;-80
2023/08/23 20:13:04;;;;;;;3.05;1.80;;;;;;;31.77;39.58;100049.59;10455480;27;96595;-80
2023/08/23 20:18:09;;;;;;;2.60;1.77;;;;;;;31.41;41.48;100051.66;10455977;27;97713;-82
2023/08/23 20:23:12;;;;;;;1.95;1.70;;;;;;;31.23;42.40;100063.84;10455896;27;96989;-80
2023/08/23 20:28:16;;;;;;;1.92;1.50;;;;;;;31.21;42.76;100075.97;10455222;27;97290;-80
2023/08/23 20:33:20;;;;;;;2.05;1.42;;;;;;;31.08;42.94;100086.72;10453902;27;96725;-81
2023/08/23 20:38:24;;;;;;;2.33;1.55;;;;;;;30.84;43.93;100098.84;10455471;27;96823;-79
2023/08/23 20:43:26;;;;;;;;;;;;;;;30.60;45.92;100114.63;10455175;27;96881;-80
2023/08/23 20:48:31;;;;;;;1.70;1.60;;;;;;;30.45;44.72;100116.56;10454476;27;97805;-81
2023/08/23 20:53:35;;;;;;;1.73;1.40;;;;;;;30.57;44.20;100125.88;10454479;27;96609;-80
2023/08/23 20:58:38;;;;;;;;;;;;;;;30.55;44.81;100138.81;10455345;27;97083;-80
2023/08/23 21:03:43;;;;;;;2.13;1.50;;;;;;;30.35;44.82;100146.75;10454251;27;96972;-80
2023/08/23 21:08:46;;;;;;;1.83;1.33;;;;;;;30.27;44.84;100155.81;10454681;27;96791;-80
2023/08/23 21:13:49;;;;;;;2.58;1.58;;;;;;;30.31;44.64;100166.28;10454570;27;97945;-80
2023/08/23 21:18:55;;;;;;;2.25;1.40;;;;;;;30.01;45.83;100160.84;10453468;27;96659;-80
2023/08/23 21:23:58;;;;;;;2.10;1.10;;;;;;;29.99;45.92;100164.78;10483894;27;96846;-80
2023/08/23 21:29:02;;;;;;;1.70;1.45;;;;;;;30.22;45.23;100179.13;10503454;27;96648;-80
2023/08/23 21:34:06;;;;;;;2.15;1.40;;;;;;;29.86;46.34;100173.59;10461408;27;97770;-80
2023/08/23 21:39:12;;;;;;;2.15;1.30;;;;;;;29.76;46.72;100177.59;10460325;27;97724;-80
2023/08/23 21:44:15;;;;;;;1.73;1.30;;;;;;;29.33;47.86;100189.97;10460545;27;96668;-81
2023/08/23 21:49:20;;;;;;;;;;;;;;;29.39;48.47;100196.53;10473516;27;97322;-80
2023/08/23 21:54:24;;;;;;;1.90;1.45;;;;;;;29.31;47.81;100189.34;10502500;27;96723;-80
2023/08/23 21:59:27;;;;;;;1.80;1.40;;;;;;;29.22;48.21;100194.97;10502881;27;97066;-80
2023/08/23 22:04:31;;;;;;;;;;;;;;;29.09;49.11;100187.44;10490901;27;96708;-80
2023/08/23 22:09:35;;;;;;;2.33;1.20;;;;;;;29.07;48.42;100195.75;10459658;27;96938;-80
2023/08/23 22:14:38;;;;;;;;;;;;;;;28.92;49.79;100199.44;10458860;27;97217;-80
2023/08/23 22:19:44;;;;;;;1.35;1.23;;;;;;;28.92;48.89;100200.28;10493590;22;97178;-80
2023/08/23 22:24:47;;;;;;;2.38;1.35;;;;;;;28.97;49.02;100197.00;10492722;27;97093;-80
2023/08/23 22:29:50;;;;;;;3.25;1.63;;;;;;;29.01;48.67;100198.34;10501432;27;96682;-80
2023/08/23 22:34:55;;;;;;;1.55;1.30;;;;;;;28.85;49.18;100198.41;10500331;27;96648;-80
2023/08/23 22:39:58;;;;;;;1.73;1.30;;;;;;;28.72;49.30;100192.75;10500046;27;97172;-80
2023/08/23 22:45:02;;;;;;;2.53;1.40;;;;;;;28.79;49.61;100188.31;10500840;27;98226;-80
2023/08/23 22:50:08;;;;;;;2.60;1.52;;;;;;;28.64;49.55;100182.78;10500905;27;97258;-80
2023/08/23 22:55:11;;;;;;;1.73;1.30;;;;;;;28.84;49.06;100184.06;10499902;27;97578;-80
2023/08/23 23:00:15;;;;;;;2.17;1.55;;;;;;;28.53;49.57;100177.81;10500166;27;96838;-80
2023/08/23 23:05:20;;;;;;;2.42;1.38;;;;;;;28.81;49.25;100178.97;10499077;27;96801;-80
2023/08/23 23:10:23;;;;;;;2.15;1.40;;;;;;;28.95;48.98;100175.53;10499915;27;97426;-80
2023/08/23 23:15:29;;;;;;;2.17;1.50;;;;;;;28.55;49.93;100172.19;10498870;27;97401;-80
2023/08/23 23:20:36;;;;;;;2.22;1.70;;;;;;;28.26;50.34;100175.50;10462308;27;96825;-80
2023/08/23 23:25:43;;;;;;;1.50;1.27;;;;;;;28.22;50.39;100174.16;10457156;27;96736;-80
2023/08/23 23:30:46;;;;;;;2.58;1.70;;;;;;;28.05;50.86;100161.69;10457540;27;97351;-80
2023/08/23 23:35:51;;;;;;;2.00;1.33;;;;;;;28.09;50.83;100163.06;10456725;27;96697;-80
2023/08/23 23:40:54;;;;;;;2.00;1.30;;;;;;;27.68;51.35;100159.63;10457514;27;96604;-80